sensor_id;sensor_type;location;lat;lon;timestamp;P1;durP1;ratioP1;P2;durP2;ratioP2
10687;SDS011;5392;42.688;23.298;2024-03-29T00:01:57;2.30;;;0.93;;
10687;SDS011;5392;42.688;23.298;2024-03-29T00:04:23;1.63;;;1.30;;
10687;SDS011;5392;42.688;23.298;2024-03-29T00:06:48;1.42;;;1.15;;
10687;SDS011;5392;42.688;23.298;2024-03-29T00:09:14;2.47;;;0.90;;
10687;SDS011;5392;42.688;23.298;2024-03-29T00:11:39;2.80;;;1.17;;
10687;SDS011;5392;42.688;23.298;2024-03-29T00:14:05;1.25;;;0.80;;
10687;SDS011;5392;42.688;23.298;2024-03-29T00:16:30;1.70;;;1.00;;
10687;SDS011;5392;42.688;23.298;2024-03-29T00:18:56;2.78;;;0.95;;
10687;SDS011;5392;42.688;23.298;2024-03-29T00:21:21;1.75;;;1.15;;
10687;SDS011;5392;42.688;23.298;2024-03-29T00:23:47;3.33;;;0.82;;
10687;SDS011;5392;42.688;23.298;2024-03-29T00:26:12;1.67;;;0.70;;
10687;SDS011;5392;42.688;23.298;2024-03-29T00:28:38;2.33;;;1.00;;
10687;SDS011;5392;42.688;23.298;2024-03-29T00:31:04;0.98;;;0.50;;
10687;SDS011;5392;42.688;23.298;2024-03-29T00:33:30;2.78;;;0.80;;
10687;SDS011;5392;42.688;23.298;2024-03-29T00:35:55;4.00;;;1.00;;
10687;SDS011;5392;42.688;23.298;2024-03-29T00:38:21;0.65;;;0.65;;
10687;SDS011;5392;42.688;23.298;2024-03-29T00:40:47;1.08;;;0.95;;
10687;SDS011;5392;42.688;23.298;2024-03-29T00:43:12;3.47;;;0.85;;
10687;SDS011;5392;42.688;23.298;2024-03-29T00:45:38;2.70;;;0.90;;
10687;SDS011;5392;42.688;23.298;2024-03-29T00:48:03;2.05;;;0.90;;
10687;SDS011;5392;42.688;23.298;2024-03-29T00:50:29;1.33;;;0.70;;
10687;SDS011;5392;42.688;23.298;2024-03-29T00:52:54;1.52;;;0.90;;
10687;SDS011;5392;42.688;23.298;2024-03-29T00:55:20;0.80;;;0.80;;
10687;SDS011;5392;42.688;23.298;2024-03-29T00:57:47;0.82;;;0.73;;
10687;SDS011;5392;42.688;23.298;2024-03-29T01:00:13;2.78;;;0.70;;
10687;SDS011;5392;42.688;23.298;2024-03-29T01:02:39;2.20;;;0.88;;
10687;SDS011;5392;42.688;23.298;2024-03-29T01:05:05;1.83;;;0.88;;
10687;SDS011;5392;42.688;23.298;2024-03-29T01:07:31;1.15;;;0.63;;
10687;SDS011;5392;42.688;23.298;2024-03-29T01:09:56;0.77;;;0.55;;
10687;SDS011;5392;42.688;23.298;2024-03-29T01:12:22;2.30;;;0.90;;
10687;SDS011;5392;42.688;23.298;2024-03-29T01:14:47;0.85;;;0.60;;
10687;SDS011;5392;42.688;23.298;2024-03-29T01:17:13;0.77;;;0.60;;
10687;SDS011;5392;42.688;23.298;2024-03-29T01:19:39;0.63;;;0.60;;
10687;SDS011;5392;42.688;23.298;2024-03-29T01:22:04;0.70;;;0.70;;
10687;SDS011;5392;42.688;23.298;2024-03-29T01:24:30;2.92;;;0.70;;
10687;SDS011;5392;42.688;23.298;2024-03-29T01:26:55;2.00;;;0.73;;
10687;SDS011;5392;42.688;23.298;2024-03-29T01:29:21;2.88;;;1.20;;
10687;SDS011;5392;42.688;23.298;2024-03-29T01:31:46;2.90;;;0.88;;
10687;SDS011;5392;42.688;23.298;2024-03-29T01:34:12;1.00;;;0.82;;
10687;SDS011;5392;42.688;23.298;2024-03-29T01:36:37;2.53;;;0.70;;
10687;SDS011;5392;42.688;23.298;2024-03-29T01:39:03;0.60;;;0.60;;
10687;SDS011;5392;42.688;23.298;2024-03-29T01:41:29;1.67;;;0.60;;
10687;SDS011;5392;42.688;23.298;2024-03-29T01:43:54;0.98;;;0.93;;
10687;SDS011;5392;42.688;23.298;2024-03-29T01:46:21;3.47;;;0.88;;
10687;SDS011;5392;42.688;23.298;2024-03-29T01:48:48;1.02;;;0.60;;
10687;SDS011;5392;42.688;23.298;2024-03-29T01:51:16;1.92;;;0.70;;
10687;SDS011;5392;42.688;23.298;2024-03-29T01:53:43;2.17;;;0.70;;
10687;SDS011;5392;42.688;23.298;2024-03-29T01:56:10;2.00;;;1.08;;
10687;SDS011;5392;42.688;23.298;2024-03-29T01:58:36;1.63;;;1.08;;
10687;SDS011;5392;42.688;23.298;2024-03-29T02:01:03;1.20;;;1.10;;
10687;SDS011;5392;42.688;23.298;2024-03-29T02:03:31;3.70;;;1.38;;
10687;SDS011;5392;42.688;23.298;2024-03-29T02:05:57;2.42;;;0.80;;
10687;SDS011;5392;42.688;23.298;2024-03-29T02:08:24;1.88;;;0.80;;
10687;SDS011;5392;42.688;23.298;2024-03-29T02:10:50;3.22;;;0.85;;
10687;SDS011;5392;42.688;23.298;2024-03-29T02:13:16;1.15;;;0.77;;
10687;SDS011;5392;42.688;23.298;2024-03-29T02:15:42;3.90;;;1.00;;
10687;SDS011;5392;42.688;23.298;2024-03-29T02:18:08;1.48;;;0.70;;
10687;SDS011;5392;42.688;23.298;2024-03-29T02:20:33;1.85;;;0.80;;
10687;SDS011;5392;42.688;23.298;2024-03-29T02:23:11;1.05;;;0.47;;
10687;SDS011;5392;42.688;23.298;2024-03-29T02:25:39;0.60;;;0.60;;
10687;SDS011;5392;42.688;23.298;2024-03-29T02:28:05;1.15;;;0.70;;
10687;SDS011;5392;42.688;23.298;2024-03-29T02:32:59;1.27;;;0.70;;
10687;SDS011;5392;42.688;23.298;2024-03-29T02:35:25;2.58;;;0.80;;
10687;SDS011;5392;42.688;23.298;2024-03-29T02:40:17;1.40;;;0.68;;
10687;SDS011;5392;42.688;23.298;2024-03-29T02:42:43;1.55;;;0.85;;
10687;SDS011;5392;42.688;23.298;2024-03-29T02:45:08;1.05;;;0.80;;
10687;SDS011;5392;42.688;23.298;2024-03-29T02:47:34;1.38;;;0.70;;
10687;SDS011;5392;42.688;23.298;2024-03-29T02:50:00;1.30;;;0.93;;
10687;SDS011;5392;42.688;23.298;2024-03-29T02:52:25;0.88;;;0.73;;
10687;SDS011;5392;42.688;23.298;2024-03-29T02:54:51;3.47;;;0.90;;
10687;SDS011;5392;42.688;23.298;2024-03-29T02:57:16;1.63;;;0.90;;
10687;SDS011;5392;42.688;23.298;2024-03-29T02:59:42;3.53;;;1.00;;
10687;SDS011;5392;42.688;23.298;2024-03-29T03:02:08;1.70;;;0.73;;
10687;SDS011;5392;42.688;23.298;2024-03-29T03:04:33;1.73;;;1.00;;
10687;SDS011;5392;42.688;23.298;2024-03-29T03:06:59;2.13;;;1.10;;
10687;SDS011;5392;42.688;23.298;2024-03-29T03:09:44;0.95;;;0.90;;
10687;SDS011;5392;42.688;23.298;2024-03-29T03:12:31;1.05;;;1.00;;
10687;SDS011;5392;42.688;23.298;2024-03-29T03:14:59;2.17;;;0.90;;
10687;SDS011;5392;42.688;23.298;2024-03-29T03:17:28;1.30;;;1.08;;
10687;SDS011;5392;42.688;23.298;2024-03-29T03:19:54;2.22;;;1.15;;
10687;SDS011;5392;42.688;23.298;2024-03-29T03:22:19;1.95;;;1.10;;
10687;SDS011;5392;42.688;23.298;2024-03-29T03:24:45;1.55;;;0.90;;
10687;SDS011;5392;42.688;23.298;2024-03-29T03:27:10;3.53;;;1.30;;
10687;SDS011;5392;42.688;23.298;2024-03-29T03:29:36;2.22;;;1.17;;
10687;SDS011;5392;42.688;23.298;2024-03-29T03:32:02;2.47;;;1.05;;
10687;SDS011;5392;42.688;23.298;2024-03-29T03:34:28;2.88;;;1.23;;
10687;SDS011;5392;42.688;23.298;2024-03-29T03:36:53;2.38;;;1.38;;
10687;SDS011;5392;42.688;23.298;2024-03-29T03:39:18;3.33;;;1.33;;
10687;SDS011;5392;42.688;23.298;2024-03-29T03:41:44;0.98;;;0.90;;
10687;SDS011;5392;42.688;23.298;2024-03-29T03:44:09;2.33;;;0.77;;
10687;SDS011;5392;42.688;23.298;2024-03-29T03:46:35;1.95;;;0.80;;
10687;SDS011;5392;42.688;23.298;2024-03-29T03:49:00;1.65;;;0.82;;
10687;SDS011;5392;42.688;23.298;2024-03-29T03:51:26;2.80;;;1.73;;
10687;SDS011;5392;42.688;23.298;2024-03-29T03:53:51;1.77;;;1.17;;
10687;SDS011;5392;42.688;23.298;2024-03-29T03:56:17;2.38;;;1.15;;
10687;SDS011;5392;42.688;23.298;2024-03-29T03:58:46;4.45;;;1.20;;
10687;SDS011;5392;42.688;23.298;2024-03-29T04:01:11;2.30;;;1.00;;
10687;SDS011;5392;42.688;23.298;2024-03-29T04:03:37;2.22;;;1.20;;
10687;SDS011;5392;42.688;23.298;2024-03-29T04:06:04;4.68;;;1.25;;
10687;SDS011;5392;42.688;23.298;2024-03-29T04:08:31;3.17;;;1.40;;
10687;SDS011;5392;42.688;23.298;2024-03-29T04:10:56;5.63;;;1.48;;
10687;SDS011;5392;42.688;23.298;2024-03-29T04:13:22;9.20;;;2.15;;
10687;SDS011;5392;42.688;23.298;2024-03-29T04:15:48;3.33;;;1.30;;
10687;SDS011;5392;42.688;23.298;2024-03-29T04:18:13;2.30;;;1.20;;
10687;SDS011;5392;42.688;23.298;2024-03-29T04:20:39;3.03;;;1.23;;
10687;SDS011;5392;42.688;23.298;2024-03-29T04:23:05;6.20;;;1.23;;
10687;SDS011;5392;42.688;23.298;2024-03-29T04:25:31;4.47;;;1.30;;
10687;SDS011;5392;42.688;23.298;2024-03-29T04:27:56;2.97;;;2.05;;
10687;SDS011;5392;42.688;23.298;2024-03-29T04:30:21;4.65;;;2.03;;
10687;SDS011;5392;42.688;23.298;2024-03-29T04:32:47;4.20;;;2.10;;
10687;SDS011;5392;42.688;23.298;2024-03-29T04:35:13;9.05;;;2.58;;
10687;SDS011;5392;42.688;23.298;2024-03-29T04:37:38;4.93;;;2.22;;
10687;SDS011;5392;42.688;23.298;2024-03-29T04:40:04;6.43;;;1.55;;
10687;SDS011;5392;42.688;23.298;2024-03-29T04:42:31;1.15;;;1.15;;
10687;SDS011;5392;42.688;23.298;2024-03-29T04:44:56;2.10;;;1.13;;
10687;SDS011;5392;42.688;23.298;2024-03-29T04:47:22;3.90;;;1.50;;
10687;SDS011;5392;42.688;23.298;2024-03-29T04:49:47;11.13;;;4.43;;
10687;SDS011;5392;42.688;23.298;2024-03-29T04:54:38;19.20;;;5.37;;
10687;SDS011;5392;42.688;23.298;2024-03-29T04:57:04;12.60;;;4.10;;
10687;SDS011;5392;42.688;23.298;2024-03-29T04:59:31;6.10;;;3.25;;
10687;SDS011;5392;42.688;23.298;2024-03-29T05:02:01;12.05;;;2.95;;
10687;SDS011;5392;42.688;23.298;2024-03-29T05:04:27;20.42;;;3.90;;
10687;SDS011;5392;42.688;23.298;2024-03-29T05:06:53;9.07;;;2.75;;
10687;SDS011;5392;42.688;23.298;2024-03-29T05:09:19;12.50;;;3.10;;
10687;SDS011;5392;42.688;23.298;2024-03-29T05:11:45;11.85;;;2.85;;
10687;SDS011;5392;42.688;23.298;2024-03-29T05:14:12;12.43;;;3.10;;
10687;SDS011;5392;42.688;23.298;2024-03-29T05:16:39;11.38;;;4.20;;
10687;SDS011;5392;42.688;23.298;2024-03-29T05:19:05;12.13;;;4.43;;
10687;SDS011;5392;42.688;23.298;2024-03-29T05:21:31;7.40;;;2.88;;
10687;SDS011;5392;42.688;23.298;2024-03-29T05:23:56;16.95;;;3.53;;
10687;SDS011;5392;42.688;23.298;2024-03-29T05:26:22;14.38;;;4.05;;
10687;SDS011;5392;42.688;23.298;2024-03-29T05:28:47;10.25;;;3.03;;
10687;SDS011;5392;42.688;23.298;2024-03-29T05:31:14;10.60;;;4.28;;
10687;SDS011;5392;42.688;23.298;2024-03-29T05:33:43;10.35;;;3.75;;
10687;SDS011;5392;42.688;23.298;2024-03-29T05:36:10;5.88;;;2.38;;
10687;SDS011;5392;42.688;23.298;2024-03-29T05:38:38;4.72;;;3.00;;
10687;SDS011;5392;42.688;23.298;2024-03-29T05:41:04;7.68;;;2.88;;
10687;SDS011;5392;42.688;23.298;2024-03-29T05:43:30;9.13;;;3.95;;
10687;SDS011;5392;42.688;23.298;2024-03-29T05:45:56;8.50;;;3.92;;
10687;SDS011;5392;42.688;23.298;2024-03-29T05:48:21;13.63;;;3.63;;
10687;SDS011;5392;42.688;23.298;2024-03-29T05:50:47;6.68;;;2.67;;
10687;SDS011;5392;42.688;23.298;2024-03-29T05:53:13;14.07;;;3.35;;
10687;SDS011;5392;42.688;23.298;2024-03-29T05:55:38;4.53;;;2.15;;
10687;SDS011;5392;42.688;23.298;2024-03-29T05:58:04;8.98;;;2.42;;
10687;SDS011;5392;42.688;23.298;2024-03-29T06:00:31;12.48;;;3.67;;
10687;SDS011;5392;42.688;23.298;2024-03-29T06:02:59;5.25;;;2.60;;
10687;SDS011;5392;42.688;23.298;2024-03-29T06:05:27;8.77;;;2.92;;
10687;SDS011;5392;42.688;23.298;2024-03-29T06:07:53;14.32;;;2.90;;
10687;SDS011;5392;42.688;23.298;2024-03-29T06:10:18;7.10;;;2.80;;
10687;SDS011;5392;42.688;23.298;2024-03-29T06:12:44;12.65;;;3.08;;
10687;SDS011;5392;42.688;23.298;2024-03-29T06:15:09;9.70;;;3.47;;
10687;SDS011;5392;42.688;23.298;2024-03-29T06:17:53;11.45;;;3.35;;
10687;SDS011;5392;42.688;23.298;2024-03-29T06:20:19;10.43;;;3.92;;
10687;SDS011;5392;42.688;23.298;2024-03-29T06:22:44;8.43;;;3.63;;
10687;SDS011;5392;42.688;23.298;2024-03-29T06:25:10;10.23;;;4.38;;
10687;SDS011;5392;42.688;23.298;2024-03-29T06:27:36;5.57;;;1.50;;
10687;SDS011;5392;42.688;23.298;2024-03-29T06:30:05;1.67;;;1.00;;
10687;SDS011;5392;42.688;23.298;2024-03-29T06:32:33;4.93;;;1.20;;
10687;SDS011;5392;42.688;23.298;2024-03-29T06:34:59;5.10;;;1.65;;
10687;SDS011;5392;42.688;23.298;2024-03-29T06:37:25;5.05;;;1.33;;
10687;SDS011;5392;42.688;23.298;2024-03-29T06:39:51;4.95;;;0.95;;
10687;SDS011;5392;42.688;23.298;2024-03-29T06:42:17;6.15;;;1.08;;
10687;SDS011;5392;42.688;23.298;2024-03-29T06:44:43;4.53;;;1.17;;
10687;SDS011;5392;42.688;23.298;2024-03-29T06:47:08;1.92;;;1.08;;
10687;SDS011;5392;42.688;23.298;2024-03-29T06:49:34;1.95;;;1.52;;
10687;SDS011;5392;42.688;23.298;2024-03-29T06:52:01;3.15;;;1.50;;
10687;SDS011;5392;42.688;23.298;2024-03-29T06:54:27;3.45;;;1.10;;
10687;SDS011;5392;42.688;23.298;2024-03-29T06:56:53;2.97;;;0.95;;
10687;SDS011;5392;42.688;23.298;2024-03-29T06:59:19;4.50;;;1.10;;
10687;SDS011;5392;42.688;23.298;2024-03-29T07:01:45;4.32;;;1.33;;
10687;SDS011;5392;42.688;23.298;2024-03-29T07:04:12;5.68;;;1.67;;
10687;SDS011;5392;42.688;23.298;2024-03-29T07:06:38;3.33;;;1.02;;
10687;SDS011;5392;42.688;23.298;2024-03-29T07:09:07;7.97;;;1.55;;
10687;SDS011;5392;42.688;23.298;2024-03-29T07:11:34;4.68;;;1.05;;
10687;SDS011;5392;42.688;23.298;2024-03-29T07:14:00;3.70;;;1.10;;
10687;SDS011;5392;42.688;23.298;2024-03-29T07:16:26;6.13;;;2.20;;
10687;SDS011;5392;42.688;23.298;2024-03-29T07:18:51;4.28;;;1.00;;
10687;SDS011;5392;42.688;23.298;2024-03-29T07:21:17;3.65;;;1.23;;
10687;SDS011;5392;42.688;23.298;2024-03-29T07:23:42;4.65;;;1.80;;
10687;SDS011;5392;42.688;23.298;2024-03-29T07:26:07;2.10;;;0.93;;
10687;SDS011;5392;42.688;23.298;2024-03-29T07:28:33;3.22;;;1.48;;
10687;SDS011;5392;42.688;23.298;2024-03-29T07:31:04;6.80;;;1.67;;
10687;SDS011;5392;42.688;23.298;2024-03-29T07:33:34;2.70;;;1.10;;
10687;SDS011;5392;42.688;23.298;2024-03-29T07:35:59;3.28;;;1.02;;
10687;SDS011;5392;42.688;23.298;2024-03-29T07:38:25;0.93;;;0.75;;
10687;SDS011;5392;42.688;23.298;2024-03-29T07:40:51;2.72;;;1.00;;
10687;SDS011;5392;42.688;23.298;2024-03-29T07:43:19;0.95;;;0.95;;
10687;SDS011;5392;42.688;23.298;2024-03-29T07:45:46;3.25;;;0.90;;
10687;SDS011;5392;42.688;23.298;2024-03-29T07:48:12;5.13;;;1.27;;
10687;SDS011;5392;42.688;23.298;2024-03-29T07:50:42;1.27;;;1.05;;
10687;SDS011;5392;42.688;23.298;2024-03-29T07:53:08;6.63;;;1.23;;
10687;SDS011;5392;42.688;23.298;2024-03-29T07:55:35;3.35;;;1.00;;
10687;SDS011;5392;42.688;23.298;2024-03-29T07:58:01;2.35;;;1.08;;
10687;SDS011;5392;42.688;23.298;2024-03-29T08:00:27;5.50;;;1.85;;
10687;SDS011;5392;42.688;23.298;2024-03-29T08:02:52;1.90;;;0.80;;
10687;SDS011;5392;42.688;23.298;2024-03-29T08:05:20;5.10;;;1.23;;
10687;SDS011;5392;42.688;23.298;2024-03-29T08:07:46;10.20;;;2.05;;
10687;SDS011;5392;42.688;23.298;2024-03-29T08:10:11;8.27;;;2.20;;
10687;SDS011;5392;42.688;23.298;2024-03-29T08:12:36;3.25;;;1.05;;
10687;SDS011;5392;42.688;23.298;2024-03-29T08:15:02;8.52;;;2.05;;
10687;SDS011;5392;42.688;23.298;2024-03-29T08:17:29;1.83;;;1.20;;
10687;SDS011;5392;42.688;23.298;2024-03-29T08:19:54;7.30;;;1.85;;
10687;SDS011;5392;42.688;23.298;2024-03-29T08:22:20;4.55;;;2.03;;
10687;SDS011;5392;42.688;23.298;2024-03-29T08:24:46;6.93;;;2.33;;
10687;SDS011;5392;42.688;23.298;2024-03-29T08:27:11;2.75;;;1.00;;
10687;SDS011;5392;42.688;23.298;2024-03-29T08:29:37;5.60;;;1.60;;
10687;SDS011;5392;42.688;23.298;2024-03-29T08:32:02;6.57;;;1.58;;
10687;SDS011;5392;42.688;23.298;2024-03-29T08:34:28;4.68;;;1.40;;
10687;SDS011;5392;42.688;23.298;2024-03-29T08:37:00;3.55;;;1.77;;
10687;SDS011;5392;42.688;23.298;2024-03-29T08:39:29;3.10;;;1.52;;
10687;SDS011;5392;42.688;23.298;2024-03-29T08:41:55;4.80;;;2.75;;
10687;SDS011;5392;42.688;23.298;2024-03-29T08:44:21;12.27;;;5.13;;
10687;SDS011;5392;42.688;23.298;2024-03-29T08:47:04;4.32;;;2.10;;
10687;SDS011;5392;42.688;23.298;2024-03-29T08:49:30;3.50;;;1.45;;
10687;SDS011;5392;42.688;23.298;2024-03-29T08:51:56;8.48;;;2.22;;
10687;SDS011;5392;42.688;23.298;2024-03-29T08:54:27;3.22;;;0.90;;
10687;SDS011;5392;42.688;23.298;2024-03-29T08:56:53;3.22;;;1.42;;
10687;SDS011;5392;42.688;23.298;2024-03-29T08:59:18;4.00;;;1.10;;
10687;SDS011;5392;42.688;23.298;2024-03-29T09:01:44;2.22;;;0.90;;
10687;SDS011;5392;42.688;23.298;2024-03-29T09:04:11;2.42;;;0.88;;
10687;SDS011;5392;42.688;23.298;2024-03-29T09:06:37;2.90;;;1.27;;
10687;SDS011;5392;42.688;23.298;2024-03-29T09:09:08;4.45;;;0.80;;
10687;SDS011;5392;42.688;23.298;2024-03-29T09:11:35;2.15;;;1.00;;
10687;SDS011;5392;42.688;23.298;2024-03-29T09:14:00;2.65;;;1.02;;
10687;SDS011;5392;42.688;23.298;2024-03-29T09:16:27;2.67;;;1.02;;
10687;SDS011;5392;42.688;23.298;2024-03-29T09:18:56;5.15;;;1.10;;
10687;SDS011;5392;42.688;23.298;2024-03-29T09:21:22;2.83;;;1.25;;
10687;SDS011;5392;42.688;23.298;2024-03-29T09:23:47;1.23;;;0.68;;
10687;SDS011;5392;42.688;23.298;2024-03-29T09:26:14;1.10;;;0.82;;
10687;SDS011;5392;42.688;23.298;2024-03-29T09:28:43;3.47;;;0.80;;
10687;SDS011;5392;42.688;23.298;2024-03-29T09:31:08;2.72;;;0.60;;
10687;SDS011;5392;42.688;23.298;2024-03-29T09:33:34;2.63;;;0.93;;
10687;SDS011;5392;42.688;23.298;2024-03-29T09:36:00;1.27;;;0.57;;
10687;SDS011;5392;42.688;23.298;2024-03-29T09:38:26;1.00;;;0.70;;
10687;SDS011;5392;42.688;23.298;2024-03-29T09:43:23;4.53;;;0.90;;
10687;SDS011;5392;42.688;23.298;2024-03-29T09:45:51;3.45;;;0.90;;
10687;SDS011;5392;42.688;23.298;2024-03-29T09:48:19;3.15;;;1.00;;
10687;SDS011;5392;42.688;23.298;2024-03-29T09:50:47;2.47;;;0.80;;
10687;SDS011;5392;42.688;23.298;2024-03-29T09:53:13;1.45;;;0.73;;
10687;SDS011;5392;42.688;23.298;2024-03-29T09:55:39;2.88;;;0.80;;
10687;SDS011;5392;42.688;23.298;2024-03-29T09:58:05;5.13;;;1.10;;
10687;SDS011;5392;42.688;23.298;2024-03-29T10:00:31;2.55;;;0.80;;
10687;SDS011;5392;42.688;23.298;2024-03-29T10:02:56;3.25;;;0.85;;
10687;SDS011;5392;42.688;23.298;2024-03-29T10:05:23;1.90;;;0.80;;
10687;SDS011;5392;42.688;23.298;2024-03-29T10:07:50;1.13;;;0.73;;
10687;SDS011;5392;42.688;23.298;2024-03-29T10:10:16;3.88;;;0.90;;
10687;SDS011;5392;42.688;23.298;2024-03-29T10:12:41;1.35;;;0.63;;
10687;SDS011;5392;42.688;23.298;2024-03-29T10:15:07;4.43;;;0.80;;
10687;SDS011;5392;42.688;23.298;2024-03-29T10:17:45;1.17;;;0.90;;
10687;SDS011;5392;42.688;23.298;2024-03-29T10:20:15;1.58;;;0.82;;
10687;SDS011;5392;42.688;23.298;2024-03-29T10:22:42;2.13;;;0.70;;
10687;SDS011;5392;42.688;23.298;2024-03-29T10:25:09;1.30;;;0.77;;
10687;SDS011;5392;42.688;23.298;2024-03-29T10:27:35;1.38;;;0.88;;
10687;SDS011;5392;42.688;23.298;2024-03-29T10:30:00;3.20;;;1.20;;
10687;SDS011;5392;42.688;23.298;2024-03-29T10:32:26;3.85;;;1.10;;
10687;SDS011;5392;42.688;23.298;2024-03-29T10:34:51;3.03;;;0.68;;
10687;SDS011;5392;42.688;23.298;2024-03-29T10:37:17;0.70;;;0.70;;
10687;SDS011;5392;42.688;23.298;2024-03-29T10:39:51;4.22;;;1.10;;
10687;SDS011;5392;42.688;23.298;2024-03-29T10:42:18;3.42;;;0.80;;
10687;SDS011;5392;42.688;23.298;2024-03-29T10:44:45;2.85;;;0.93;;
10687;SDS011;5392;42.688;23.298;2024-03-29T10:47:15;1.73;;;0.85;;
10687;SDS011;5392;42.688;23.298;2024-03-29T10:49:44;1.80;;;1.00;;
10687;SDS011;5392;42.688;23.298;2024-03-29T10:52:14;3.65;;;0.95;;
10687;SDS011;5392;42.688;23.298;2024-03-29T10:54:42;3.95;;;1.30;;
10687;SDS011;5392;42.688;23.298;2024-03-29T10:57:10;2.75;;;1.17;;
10687;SDS011;5392;42.688;23.298;2024-03-29T10:59:49;3.75;;;1.45;;
10687;SDS011;5392;42.688;23.298;2024-03-29T11:02:28;2.60;;;1.20;;
10687;SDS011;5392;42.688;23.298;2024-03-29T11:05:01;4.55;;;1.15;;
10687;SDS011;5392;42.688;23.298;2024-03-29T11:07:31;2.72;;;1.10;;
10687;SDS011;5392;42.688;23.298;2024-03-29T11:10:00;4.68;;;0.82;;
10687;SDS011;5392;42.688;23.298;2024-03-29T11:12:27;1.63;;;1.00;;
10687;SDS011;5392;42.688;23.298;2024-03-29T11:15:02;2.50;;;0.80;;
10687;SDS011;5392;42.688;23.298;2024-03-29T11:17:31;1.33;;;0.80;;
10687;SDS011;5392;42.688;23.298;2024-03-29T11:19:58;1.58;;;0.77;;
10687;SDS011;5392;42.688;23.298;2024-03-29T11:22:26;2.85;;;1.52;;
10687;SDS011;5392;42.688;23.298;2024-03-29T11:24:53;2.28;;;1.00;;
10687;SDS011;5392;42.688;23.298;2024-03-29T11:27:22;1.73;;;1.23;;
10687;SDS011;5392;42.688;23.298;2024-03-29T11:29:48;2.13;;;0.90;;
10687;SDS011;5392;42.688;23.298;2024-03-29T11:32:14;1.60;;;1.10;;
10687;SDS011;5392;42.688;23.298;2024-03-29T11:34:46;3.67;;;1.42;;
10687;SDS011;5392;42.688;23.298;2024-03-29T11:37:12;5.25;;;1.25;;
10687;SDS011;5392;42.688;23.298;2024-03-29T11:39:38;6.85;;;1.65;;
10687;SDS011;5392;42.688;23.298;2024-03-29T11:42:05;5.55;;;1.55;;
10687;SDS011;5392;42.688;23.298;2024-03-29T11:44:31;2.33;;;1.38;;
10687;SDS011;5392;42.688;23.298;2024-03-29T11:46:57;6.65;;;1.30;;
10687;SDS011;5392;42.688;23.298;2024-03-29T11:49:23;4.35;;;1.02;;
10687;SDS011;5392;42.688;23.298;2024-03-29T11:51:49;2.80;;;1.00;;
10687;SDS011;5392;42.688;23.298;2024-03-29T11:54:15;3.13;;;1.10;;
10687;SDS011;5392;42.688;23.298;2024-03-29T11:56:44;1.63;;;0.90;;
10687;SDS011;5392;42.688;23.298;2024-03-29T11:59:09;2.17;;;0.90;;
10687;SDS011;5392;42.688;23.298;2024-03-29T12:01:35;0.80;;;0.80;;
10687;SDS011;5392;42.688;23.298;2024-03-29T12:04:04;3.40;;;1.08;;
10687;SDS011;5392;42.688;23.298;2024-03-29T12:06:29;3.75;;;1.40;;
10687;SDS011;5392;42.688;23.298;2024-03-29T12:08:55;1.27;;;0.93;;
10687;SDS011;5392;42.688;23.298;2024-03-29T12:11:22;1.92;;;1.10;;
10687;SDS011;5392;42.688;23.298;2024-03-29T12:13:48;2.00;;;0.88;;
10687;SDS011;5392;42.688;23.298;2024-03-29T12:16:14;4.50;;;1.10;;
10687;SDS011;5392;42.688;23.298;2024-03-29T12:18:40;2.35;;;1.08;;
10687;SDS011;5392;42.688;23.298;2024-03-29T12:21:05;2.95;;;1.00;;
10687;SDS011;5392;42.688;23.298;2024-03-29T12:23:31;1.88;;;1.20;;
10687;SDS011;5392;42.688;23.298;2024-03-29T12:25:57;2.83;;;0.90;;
10687;SDS011;5392;42.688;23.298;2024-03-29T12:28:26;3.53;;;0.80;;
10687;SDS011;5392;42.688;23.298;2024-03-29T12:30:52;4.20;;;1.05;;
10687;SDS011;5392;42.688;23.298;2024-03-29T12:33:22;1.58;;;1.10;;
10687;SDS011;5392;42.688;23.298;2024-03-29T12:35:48;4.18;;;0.90;;
10687;SDS011;5392;42.688;23.298;2024-03-29T12:38:17;4.03;;;1.17;;
10687;SDS011;5392;42.688;23.298;2024-03-29T12:40:45;4.15;;;2.08;;
10687;SDS011;5392;42.688;23.298;2024-03-29T12:43:18;3.03;;;1.15;;
10687;SDS011;5392;42.688;23.298;2024-03-29T12:45:46;4.80;;;0.80;;
10687;SDS011;5392;42.688;23.298;2024-03-29T12:48:15;2.58;;;1.40;;
10687;SDS011;5392;42.688;23.298;2024-03-29T12:50:42;2.33;;;1.15;;
10687;SDS011;5392;42.688;23.298;2024-03-29T12:53:10;3.00;;;1.45;;
10687;SDS011;5392;42.688;23.298;2024-03-29T12:55:37;3.90;;;1.40;;
10687;SDS011;5392;42.688;23.298;2024-03-29T12:58:07;4.40;;;1.10;;
10687;SDS011;5392;42.688;23.298;2024-03-29T13:00:35;2.58;;;1.40;;
10687;SDS011;5392;42.688;23.298;2024-03-29T13:03:01;3.08;;;1.48;;
10687;SDS011;5392;42.688;23.298;2024-03-29T13:05:27;2.33;;;1.10;;
10687;SDS011;5392;42.688;23.298;2024-03-29T13:07:54;2.65;;;0.90;;
10687;SDS011;5392;42.688;23.298;2024-03-29T13:10:21;1.17;;;0.70;;
10687;SDS011;5392;42.688;23.298;2024-03-29T13:12:47;4.97;;;1.10;;
10687;SDS011;5392;42.688;23.298;2024-03-29T13:15:24;4.65;;;1.10;;
10687;SDS011;5392;42.688;23.298;2024-03-29T13:17:52;1.50;;;0.73;;
10687;SDS011;5392;42.688;23.298;2024-03-29T13:20:19;7.45;;;1.80;;
10687;SDS011;5392;42.688;23.298;2024-03-29T13:22:46;2.53;;;1.10;;
10687;SDS011;5392;42.688;23.298;2024-03-29T13:25:17;4.90;;;1.20;;
10687;SDS011;5392;42.688;23.298;2024-03-29T13:27:47;2.67;;;1.02;;
10687;SDS011;5392;42.688;23.298;2024-03-29T13:30:17;2.13;;;1.20;;
10687;SDS011;5392;42.688;23.298;2024-03-29T13:32:42;4.00;;;1.23;;
10687;SDS011;5392;42.688;23.298;2024-03-29T13:35:09;4.32;;;1.15;;
10687;SDS011;5392;42.688;23.298;2024-03-29T13:37:39;2.75;;;1.30;;
10687;SDS011;5392;42.688;23.298;2024-03-29T13:40:09;8.90;;;4.05;;
10687;SDS011;5392;42.688;23.298;2024-03-29T13:42:38;4.72;;;1.20;;
10687;SDS011;5392;42.688;23.298;2024-03-29T13:45:04;1.83;;;0.82;;
10687;SDS011;5392;42.688;23.298;2024-03-29T13:47:34;2.90;;;1.00;;
10687;SDS011;5392;42.688;23.298;2024-03-29T13:53:13;1.30;;;0.90;;
10687;SDS011;5392;42.688;23.298;2024-03-29T13:55:40;1.10;;;0.57;;
10687;SDS011;5392;42.688;23.298;2024-03-29T13:58:06;2.88;;;1.33;;
10687;SDS011;5392;42.688;23.298;2024-03-29T14:00:31;2.05;;;0.80;;
10687;SDS011;5392;42.688;23.298;2024-03-29T14:02:57;1.15;;;0.85;;
10687;SDS011;5392;42.688;23.298;2024-03-29T14:05:23;4.68;;;1.42;;
10687;SDS011;5392;42.688;23.298;2024-03-29T14:07:48;6.07;;;1.80;;
10687;SDS011;5392;42.688;23.298;2024-03-29T14:10:15;5.60;;;2.13;;
10687;SDS011;5392;42.688;23.298;2024-03-29T14:12:40;3.17;;;1.38;;
10687;SDS011;5392;42.688;23.298;2024-03-29T14:15:06;5.78;;;1.90;;
10687;SDS011;5392;42.688;23.298;2024-03-29T14:17:32;3.97;;;0.98;;
10687;SDS011;5392;42.688;23.298;2024-03-29T14:19:57;1.02;;;0.77;;
10687;SDS011;5392;42.688;23.298;2024-03-29T14:22:24;1.83;;;1.02;;
10687;SDS011;5392;42.688;23.298;2024-03-29T14:24:49;5.75;;;1.40;;
10687;SDS011;5392;42.688;23.298;2024-03-29T14:27:17;2.83;;;1.10;;
10687;SDS011;5392;42.688;23.298;2024-03-29T14:29:43;6.50;;;1.25;;
10687;SDS011;5392;42.688;23.298;2024-03-29T14:32:10;0.73;;;0.63;;
10687;SDS011;5392;42.688;23.298;2024-03-29T14:34:35;5.05;;;1.23;;
10687;SDS011;5392;42.688;23.298;2024-03-29T14:37:04;2.97;;;1.38;;
10687;SDS011;5392;42.688;23.298;2024-03-29T14:39:30;3.85;;;1.98;;
10687;SDS011;5392;42.688;23.298;2024-03-29T14:41:56;3.15;;;1.10;;
10687;SDS011;5392;42.688;23.298;2024-03-29T14:44:23;2.53;;;1.52;;
10687;SDS011;5392;42.688;23.298;2024-03-29T14:46:49;3.13;;;1.10;;
10687;SDS011;5392;42.688;23.298;2024-03-29T14:49:14;5.95;;;1.95;;
10687;SDS011;5392;42.688;23.298;2024-03-29T14:51:42;7.82;;;2.05;;
10687;SDS011;5392;42.688;23.298;2024-03-29T14:54:07;4.88;;;2.20;;
10687;SDS011;5392;42.688;23.298;2024-03-29T14:56:33;2.63;;;1.10;;
10687;SDS011;5392;42.688;23.298;2024-03-29T14:59:00;4.10;;;1.70;;